Time;durP1;ratioP1;P1;durP2;ratioP2;P2;SDS_P1;SDS_P2;PMS_P1;PMS_P2;Temp;Humidity;BMP_temperature;BMP_pressure;BME280_temperature;BME280_humidity;BME280_pressure;Samples;Min_cycle;Max_cycle;Signal;HPM_P1;HPM_P2
2022/05/22 00:00:43;;;;;;;1.17;1.07;;;12.00;99.90;;;;;;5219178;28;20669;-51
2022/05/22 00:03:14;;;;;;;7.30;1.77;;;12.10;99.90;;;;;;5209079;28;20207;-52
2022/05/22 00:05:45;;;;;;;4.20;1.30;;;12.10;99.90;;;;;;5216040;28;20433;-54
2022/05/22 00:08:15;;;;;;;2.37;1.40;;;12.00;99.90;;;;;;5206418;28;20222;-51
2022/05/22 00:10:46;;;;;;;7.07;1.70;;;12.00;99.90;;;;;;5201118;28;20187;-53
2022/05/22 00:13:16;;;;;;;2.20;1.53;;;11.90;99.90;;;;;;5230345;28;20245;-51
2022/05/22 00:18:36;;;;;;;1.70;1.53;;;11.90;99.90;;;;;;5203084;28;20197;-52
2022/05/22 00:21:06;;;;;;;3.43;1.57;;;11.90;99.90;;;;;;5224353;28;20529;-52
2022/05/22 00:23:37;;;;;;;4.37;1.87;;;11.90;99.90;;;;;;5218801;28;20290;-52
2022/05/22 00:26:07;;;;;;;2.23;1.50;;;11.90;99.90;;;;;;5213361;28;20227;-51
2022/05/22 00:28:38;;;;;;;1.67;1.57;;;12.00;99.90;;;;;;5188671;28;20587;-52
2022/05/22 00:31:08;;;;;;;1.57;1.07;;;12.00;99.90;;;;;;5203600;28;20286;-51
2022/05/22 00:33:39;;;;;;;6.57;1.70;;;12.00;99.90;;;;;;5190922;28;20255;-51
2022/05/22 00:36:10;;;;;;;12.43;1.50;;;12.00;99.90;;;;;;5212685;28;20223;-51
2022/05/22 00:38:41;;;;;;;7.60;1.57;;;12.00;99.90;;;;;;5209857;28;20690;-52
2022/05/22 00:41:12;;;;;;;2.23;1.20;;;12.00;99.90;;;;;;5220499;28;20183;-52
2022/05/22 00:43:49;;;;;;;15.57;1.77;;;12.00;99.90;;;;;;5225743;28;20501;-52
2022/05/22 00:46:21;;;;;;;5.10;1.47;;;12.00;99.90;;;;;;5218975;28;20476;-51
2022/05/22 00:49:08;;;;;;;8.13;1.50;;;12.00;99.90;;;;;;5212652;28;20450;-51
2022/05/22 00:52:07;;;;;;;3.73;1.30;;;12.00;99.90;;;;;;5208796;28;20510;-51
2022/05/22 00:54:47;;;;;;;1.73;1.63;;;12.00;99.90;;;;;;5216677;28;20426;-52
2022/05/22 00:57:28;;;;;;;4.83;1.53;;;12.00;99.90;;;;;;5211815;28;20441;-51
2022/05/22 01:00:04;;;;;;;3.97;1.37;;;11.90;99.90;;;;;;5211515;28;20516;-51
2022/05/22 01:05:23;;;;;;;3.60;1.50;;;11.90;99.90;;;;;;5201406;28;20522;-51
2022/05/22 01:07:57;;;;;;;9.77;1.23;;;11.80;99.90;;;;;;5209427;28;20532;-51
2022/05/22 01:10:35;;;;;;;1.60;1.50;;;11.80;99.90;;;;;;5220025;28;20637;-52
2022/05/22 01:13:06;;;;;;;8.53;1.70;;;11.70;99.90;;;;;;5214735;28;20430;-52
2022/05/22 01:15:37;;;;;;;6.87;1.50;;;11.60;99.90;;;;;;5220964;28;20422;-53
2022/05/22 01:18:07;;;;;;;2.83;1.73;;;11.50;99.90;;;;;;5215401;28;20433;-51
2022/05/22 01:20:46;;;;;;;7.17;1.60;;;11.50;99.90;;;;;;5226732;28;20179;-52
2022/05/22 01:23:17;;;;;;;1.10;1.10;;;11.50;99.90;;;;;;5212640;28;20203;-51
2022/05/22 01:25:48;;;;;;;9.17;2.00;;;11.40;99.90;;;;;;5212342;28;20461;-51
2022/05/22 01:28:19;;;;;;;2.17;1.03;;;11.30;99.90;;;;;;5215496;28;20461;-51
2022/05/22 01:30:50;;;;;;;2.13;1.30;;;11.30;99.90;;;;;;5213113;28;20224;-53
2022/05/22 01:33:20;;;;;;;5.40;1.90;;;11.20;99.90;;;;;;5196419;28;20514;-51
2022/05/22 01:35:51;;;;;;;2.10;1.40;;;11.20;99.90;;;;;;5217910;28;20655;-51
2022/05/22 01:38:24;;;;;;;3.13;1.67;;;11.10;99.90;;;;;;5215528;28;20190;-52
2022/05/22 01:40:54;;;;;;;3.03;1.17;;;11.10;99.90;;;;;;5202153;28;20264;-51
2022/05/22 01:43:27;;;;;;;8.30;1.70;;;11.00;99.90;;;;;;5206030;28;20496;-52
2022/05/22 01:45:58;;;;;;;2.43;1.20;;;11.00;99.90;;;;;;5225323;28;20653;-52
2022/05/22 01:48:29;;;;;;;2.13;1.30;;;11.00;99.90;;;;;;5220927;28;20496;-52
2022/05/22 01:50:59;;;;;;;10.70;1.70;;;11.00;99.90;;;;;;5230043;28;20240;-52
2022/05/22 01:53:30;;;;;;;2.00;1.57;;;11.00;99.90;;;;;;5211048;28;20179;-52
2022/05/22 01:56:01;;;;;;;9.47;2.23;;;11.00;99.90;;;;;;5209809;28;20186;-52
2022/05/22 01:58:31;;;;;;;2.80;1.60;;;10.90;99.90;;;;;;5194364;28;20801;-53
2022/05/22 02:01:02;;;;;;;2.67;1.37;;;10.90;99.90;;;;;;5218444;28;20179;-52
2022/05/22 02:03:32;;;;;;;12.03;2.27;;;11.00;99.90;;;;;;5235843;28;20340;-52
2022/05/22 02:06:03;;;;;;;7.10;2.27;;;10.90;99.90;;;;;;5208619;28;20214;-51
2022/05/22 02:08:34;;;;;;;11.20;1.93;;;10.90;99.90;;;;;;5223904;28;20643;-52
2022/05/22 02:11:06;;;;;;;1.60;1.23;;;10.90;99.90;;;;;;5220732;28;20627;-52
2022/05/22 02:13:42;;;;;;;7.20;1.93;;;11.00;99.90;;;;;;5211826;28;20257;-51
2022/05/22 02:16:13;;;;;;;5.20;1.90;;;11.00;99.90;;;;;;5207696;28;20485;-51
2022/05/22 02:18:44;;;;;;;7.30;1.77;;;11.00;99.90;;;;;;5218531;28;20418;-52
2022/05/22 02:21:14;;;;;;;3.53;1.50;;;11.10;99.90;;;;;;5213455;28;20275;-51
2022/05/22 02:23:45;;;;;;;6.50;1.23;;;11.10;99.90;;;;;;5210560;28;20817;-52
2022/05/22 02:26:15;;;;;;;4.77;1.53;;;11.10;99.90;;;;;;5221997;28;20244;-52
2022/05/22 02:28:46;;;;;;;9.23;1.97;;;11.10;99.90;;;;;;5203644;28;20528;-51
2022/05/22 02:31:16;;;;;;;4.30;1.20;;;11.10;99.90;;;;;;5211436;28;20636;-52
2022/05/22 02:33:47;;;;;;;7.03;2.33;;;11.10;99.90;;;;;;5210609;28;20190;-52
2022/05/22 02:36:18;;;;;;;1.80;1.23;;;11.10;99.90;;;;;;5216700;28;20218;-52
2022/05/22 02:38:49;;;;;;;4.40;1.40;;;11.10;99.90;;;;;;5209140;28;20442;-51
2022/05/22 02:41:20;;;;;;;7.03;2.03;;;11.10;99.90;;;;;;5221470;28;20179;-52
2022/05/22 02:43:51;;;;;;;5.50;2.00;;;11.10;99.90;;;;;;5223422;28;20202;-51
2022/05/22 02:46:22;;;;;;;13.50;2.07;;;11.10;99.90;;;;;;5212895;28;20485;-51
2022/05/22 02:48:52;;;;;;;6.53;1.70;;;11.10;99.90;;;;;;5222542;28;20962;-52
2022/05/22 02:51:23;;;;;;;7.10;1.97;;;11.10;99.90;;;;;;5213772;28;20217;-52
2022/05/22 02:53:54;;;;;;;3.07;2.00;;;11.10;99.90;;;;;;5216593;28;20678;-51
2022/05/22 02:56:27;;;;;;;2.30;1.40;;;11.10;99.90;;;;;;5214003;28;20278;-52
2022/05/22 02:58:58;;;;;;;12.37;2.03;;;11.00;99.90;;;;;;5212281;28;20210;-52
2022/05/22 03:01:28;;;;;;;5.00;1.90;;;11.00;99.90;;;;;;5199695;28;20902;-52
2022/05/22 03:03:59;;;;;;;2.93;1.30;;;10.90;99.90;;;;;;5205413;28;20203;-51
2022/05/22 03:06:38;;;;;;;6.13;1.80;;;10.90;99.90;;;;;;5220494;28;20751;-51
2022/05/22 03:09:15;;;;;;;9.27;1.43;;;10.80;99.90;;;;;;5221029;28;20182;-51
2022/05/22 03:11:45;;;;;;;10.90;2.13;;;10.80;99.90;;;;;;5220406;28;20511;-51
2022/05/22 03:14:19;;;;;;;7.03;2.47;;;10.80;99.90;;;;;;5218065;28;20536;-51
2022/05/22 03:16:50;;;;;;;12.37;6.40;;;10.80;99.90;;;;;;5213551;28;20207;-52
2022/05/22 03:19:20;;;;;;;4.20;1.73;;;10.80;99.90;;;;;;5217022;28;20995;-52
2022/05/22 03:21:51;;;;;;;10.27;2.37;;;10.80;99.90;;;;;;5190775;28;20180;-53
2022/05/22 03:24:22;;;;;;;5.30;2.20;;;10.80;99.90;;;;;;5203352;28;20210;-52
2022/05/22 03:26:52;;;;;;;5.40;2.10;;;10.80;99.90;;;;;;5199279;28;20204;-52
2022/05/22 03:29:23;;;;;;;4.20;1.80;;;10.80;99.90;;;;;;5207899;28;20260;-50
2022/05/22 03:31:53;;;;;;;3.27;1.50;;;10.90;99.90;;;;;;5226034;28;20177;-51
2022/05/22 03:34:24;;;;;;;4.07;2.03;;;11.00;99.90;;;;;;5217549;28;20227;-51
2022/05/22 03:36:55;;;;;;;7.13;1.87;;;11.10;99.90;;;;;;5230037;22;20340;-48
2022/05/22 03:39:26;;;;;;;5.87;2.30;;;11.10;99.90;;;;;;5250550;28;20243;-49
2022/05/22 03:41:58;;;;;;;9.90;3.50;;;11.20;99.90;;;;;;5249837;28;20432;-48
2022/05/22 03:44:28;;;;;;;5.90;2.00;;;11.40;99.90;;;;;;5252071;28;20210;-48
2022/05/22 03:46:59;;;;;;;5.53;1.80;;;11.50;99.90;;;;;;5246747;28;20484;-49
2022/05/22 03:49:33;;;;;;;6.10;1.93;;;11.60;99.90;;;;;;5249398;28;20178;-48
2022/05/22 03:52:04;;;;;;;4.07;1.57;;;11.50;99.90;;;;;;5247219;28;20193;-48
2022/05/22 03:54:34;;;;;;;8.90;2.00;;;11.50;99.90;;;;;;5251668;28;20439;-48
2022/05/22 03:57:05;;;;;;;13.73;2.30;;;11.50;99.90;;;;;;5240178;28;20210;-48
2022/05/22 03:59:40;;;;;;;5.30;1.60;;;11.50;99.90;;;;;;5249640;28;20190;-49
2022/05/22 04:02:11;;;;;;;5.10;2.17;;;11.40;99.90;;;;;;5242419;28;20197;-48
2022/05/22 04:04:41;;;;;;;7.47;1.60;;;11.40;99.90;;;;;;5233783;28;20445;-48
2022/05/22 04:07:12;;;;;;;7.67;2.10;;;11.40;99.90;;;;;;5248703;28;20303;-48
2022/05/22 04:09:43;;;;;;;16.20;2.37;;;11.40;99.90;;;;;;5242854;28;20174;-48
2022/05/22 04:12:14;;;;;;;7.07;2.20;;;11.50;99.90;;;;;;5249206;28;20197;-48
2022/05/22 04:14:44;;;;;;;7.30;1.90;;;11.50;99.90;;;;;;5250359;28;20428;-47
2022/05/22 04:17:15;;;;;;;1.97;1.80;;;11.50;99.90;;;;;;5250595;28;20210;-48
2022/05/22 04:19:45;;;;;;;12.07;2.10;;;11.50;99.90;;;;;;5248289;28;20242;-47
2022/05/22 04:22:16;;;;;;;4.00;2.47;;;11.60;99.90;;;;;;5249316;28;20260;-50
2022/05/22 04:27:38;;;;;;;3.47;1.87;;;11.50;99.90;;;;;;5252598;28;20276;-47
2022/05/22 04:30:17;;;;;;;4.50;2.13;;;11.60;99.90;;;;;;5248300;28;20543;-47
2022/05/22 04:32:49;;;;;;;12.00;2.00;;;11.60;99.90;;;;;;5251172;28;20428;-48
2022/05/22 04:35:21;;;;;;;4.33;1.73;;;11.80;99.90;;;;;;5252227;28;20515;-47
2022/05/22 04:37:52;;;;;;;14.27;2.03;;;11.90;99.90;;;;;;5250919;28;20468;-47
2022/05/22 04:40:22;;;;;;;8.70;2.50;;;12.10;99.90;;;;;;5250812;28;20988;-48
2022/05/22 04:42:52;;;;;;;2.70;1.73;;;12.20;99.90;;;;;;5232272;28;20613;-48
2022/05/22 04:45:23;;;;;;;4.50;1.67;;;12.40;99.90;;;;;;5250383;28;20178;-51
2022/05/22 04:47:53;;;;;;;9.33;2.17;;;12.80;99.90;;;;;;5251256;28;20472;-47
2022/05/22 04:50:25;;;;;;;2.13;1.60;;;13.30;99.90;;;;;;5242576;28;20186;-47
2022/05/22 04:52:56;;;;;;;5.30;2.00;;;14.00;99.90;;;;;;5248847;28;20190;-49
2022/05/22 04:55:26;;;;;;;6.73;2.10;;;14.90;99.90;;;;;;5248727;28;20535;-48
2022/05/22 04:57:57;;;;;;;11.87;2.30;;;15.20;99.90;;;;;;5249615;28;20491;-48
2022/05/22 05:00:27;;;;;;;5.70;2.30;;;15.50;99.90;;;;;;5241037;28;20685;-47
2022/05/22 05:02:58;;;;;;;6.73;2.27;;;15.60;99.90;;;;;;5228058;28;20294;-49
2022/05/22 05:05:28;;;;;;;7.00;2.30;;;15.50;99.90;;;;;;5241891;28;20175;-49
2022/05/22 05:08:00;;;;;;;4.77;2.13;;;15.60;99.90;;;;;;5237716;28;20259;-47
2022/05/22 05:10:30;;;;;;;2.70;1.87;;;15.40;99.90;;;;;;5248270;28;20170;-48
2022/05/22 05:13:01;;;;;;;7.00;2.23;;;15.50;99.90;;;;;;5248152;28;20460;-47
2022/05/22 05:15:31;;;;;;;3.87;1.83;;;15.80;99.90;;;;;;5242742;28;20198;-49
2022/05/22 05:18:02;;;;;;;9.57;2.63;;;15.80;99.90;;;;;;5247893;28;20206;-48
2022/05/22 05:20:33;;;;;;;10.43;2.03;;;15.90;99.90;;;;;;5246092;28;20592;-49
2022/05/22 05:23:04;;;;;;;10.50;2.27;;;16.40;99.90;;;;;;5247604;28;20688;-47
2022/05/22 05:25:35;;;;;;;6.00;2.60;;;16.50;99.90;;;;;;5241701;28;20182;-47
2022/05/22 05:28:06;;;;;;;9.43;2.23;;;16.80;99.90;;;;;;5247301;28;20429;-48
2022/05/22 05:30:36;;;;;;;6.73;2.40;;;17.20;99.90;;;;;;5245938;28;20212;-49
2022/05/22 05:33:07;;;;;;;10.63;2.93;;;17.50;97.80;;;;;;5247778;28;20182;-49
2022/05/22 05:35:37;;;;;;;7.73;2.60;;;18.00;96.20;;;;;;5246644;28;20535;-48
2022/05/22 05:38:08;;;;;;;2.57;1.63;;;18.20;92.90;;;;;;5239767;28;20227;-48
2022/05/22 05:40:39;;;;;;;7.27;2.23;;;17.90;91.80;;;;;;5246232;28;20252;-49
2022/05/22 05:43:09;;;;;;;6.10;1.80;;;17.70;91.90;;;;;;5248059;28;20201;-50
2022/05/22 05:45:42;;;;;;;13.30;2.90;;;18.70;91.30;;;;;;5247346;28;20582;-50
2022/05/22 05:48:12;;;;;;;9.43;2.80;;;20.20;79.70;;;;;;5243397;28;20199;-49
2022/05/22 05:50:43;;;;;;;3.07;1.80;;;21.10;66.20;;;;;;5246451;28;20940;-50
2022/05/22 05:53:13;;;;;;;5.50;2.70;;;20.30;64.80;;;;;;5244508;28;20186;-49
2022/05/22 05:55:44;;;;;;;7.47;2.20;;;19.50;67.90;;;;;;5236929;28;20182;-49
2022/05/22 05:58:15;;;;;;;8.53;2.30;;;20.00;67.30;;;;;;5243078;28;20657;-49
2022/05/22 06:00:45;;;;;;;10.53;2.30;;;19.60;66.90;;;;;;5238348;28;20265;-48
2022/05/22 06:03:16;;;;;;;10.83;2.30;;;19.00;69.60;;;;;;5237621;28;20209;-48
2022/05/22 06:05:48;;;;;;;5.20;1.63;;;19.90;69.10;;;;;;5235815;28;20182;-51
2022/05/22 06:08:18;;;;;;;7.20;2.53;;;21.20;64.70;;;;;;5240317;28;20202;-50
2022/05/22 06:10:52;;;;;;;4.23;1.70;;;21.80;59.80;;;;;;5237233;28;20422;-49
2022/05/22 06:13:23;;;;;;;6.27;2.00;;;22.10;59.00;;;;;;5239236;28;20235;-49
2022/05/22 06:15:54;;;;;;;5.87;1.90;;;22.60;54.30;;;;;;5245986;28;20932;-49
2022/05/22 06:18:25;;;;;;;4.73;2.03;;;24.10;53.10;;;;;;5242499;28;20453;-49
2022/05/22 06:20:55;;;;;;;11.63;2.40;;;25.60;48.40;;;;;;5241396;28;20658;-50
2022/05/22 06:23:26;;;;;;;4.53;1.93;;;24.90;46.60;;;;;;5234747;28;20304;-49
2022/05/22 06:25:56;;;;;;;4.63;2.23;;;23.70;49.80;;;;;;5245992;28;20183;-48
2022/05/22 06:28:27;;;;;;;8.00;1.70;;;23.60;48.70;;;;;;5241026;28;20195;-49
2022/05/22 06:30:57;;;;;;;7.30;2.10;;;22.50;50.60;;;;;;5239822;28;20600;-50
2022/05/22 06:33:29;;;;;;;4.37;1.40;;;21.20;53.00;;;;;;5245380;28;20182;-50
2022/05/22 06:36:10;;;;;;;4.10;2.30;;;20.70;55.40;;;;;;5244675;28;20206;-50
2022/05/22 06:41:30;;;;;;;12.20;1.50;;;21.70;54.70;;;;;;5242800;28;20451;-49
2022/05/22 06:44:00;;;;;;;4.97;2.10;;;23.10;51.70;;;;;;5246610;28;20464;-49
2022/05/22 06:46:33;;;;;;;3.90;1.50;;;23.00;50.90;;;;;;5237944;28;20210;-48
2022/05/22 06:49:03;;;;;;;6.23;2.40;;;22.20;52.00;;;;;;5242081;28;20546;-48
2022/05/22 06:51:34;;;;;;;9.40;2.00;;;21.10;53.50;;;;;;5246614;28;20435;-50
2022/05/22 06:54:04;;;;;;;3.33;1.90;;;20.00;55.80;;;;;;5242977;28;20197;-49
2022/05/22 06:56:35;;;;;;;9.37;2.47;;;19.30;57.50;;;;;;5244075;28;20602;-50
2022/05/22 06:59:05;;;;;;;7.30;1.90;;;18.70;60.50;;;;;;5246362;28;20208;-49
2022/05/22 07:01:38;;;;;;;7.63;2.27;;;18.70;61.60;;;;;;5246059;28;20761;-53
2022/05/22 07:04:08;;;;;;;10.27;2.27;;;18.90;61.60;;;;;;5242961;28;20247;-49
2022/05/22 07:06:39;;;;;;;8.57;3.00;;;18.80;61.90;;;;;;5244872;28;20451;-51
2022/05/22 07:09:09;;;;;;;4.93;1.70;;;18.50;63.20;;;;;;5247232;28;20188;-49
2022/05/22 07:11:40;;;;;;;7.00;1.73;;;18.00;65.40;;;;;;5245792;28;20216;-48
2022/05/22 07:14:13;;;;;;;2.63;1.30;;;17.80;68.70;;;;;;5244782;28;20204;-52
2022/05/22 07:16:44;;;;;;;15.00;2.77;;;19.30;64.90;;;;;;5251937;28;20708;-49
2022/05/22 07:19:16;;;;;;;4.63;2.00;;;19.10;63.10;;;;;;5250857;28;20523;-48
2022/05/22 07:21:47;;;;;;;4.80;1.50;;;18.80;64.50;;;;;;5251233;28;20654;-49
2022/05/22 07:24:17;;;;;;;6.63;1.80;;;18.60;66.40;;;;;;5251048;28;20495;-48
2022/05/22 07:26:48;;;;;;;5.50;1.67;;;18.60;67.30;;;;;;5251739;28;20495;-48
2022/05/22 07:29:18;;;;;;;1.73;1.63;;;18.40;67.40;;;;;;5260061;28;20189;-49
2022/05/22 07:31:49;;;;;;;11.43;2.00;;;18.20;68.70;;;;;;5250698;28;20213;-48
2022/05/22 07:34:20;;;;;;;9.47;2.03;;;17.90;70.10;;;;;;5246703;28;20182;-47
2022/05/22 07:36:59;;;;;;;7.43;2.17;;;17.60;71.30;;;;;;5251575;28;20206;-48
2022/05/22 07:39:31;;;;;;;6.23;1.80;;;17.10;73.50;;;;;;5249966;28;20505;-49
2022/05/22 07:42:02;;;;;;;2.87;1.80;;;16.80;77.10;;;;;;5251703;28;20904;-48
2022/05/22 07:44:33;;;;;;;4.03;1.77;;;16.50;82.40;;;;;;5249392;28;20240;-49
2022/05/22 07:47:04;;;;;;;4.33;1.83;;;16.20;89.80;;;;;;5250657;28;20657;-48
2022/05/22 07:52:25;;;;;;;6.87;2.03;;;16.00;94.40;;;;;;5251040;28;20447;-48
2022/05/22 07:54:56;;;;;;;2.23;1.67;;;15.70;96.50;;;;;;5244574;28;20440;-48
2022/05/22 07:57:27;;;;;;;5.03;1.77;;;15.60;98.90;;;;;;5248492;28;20559;-48
2022/05/22 07:59:57;;;;;;;5.90;1.60;;;15.60;99.50;;;;;;5247165;28;20429;-49
2022/05/22 08:02:28;;;;;;;4.60;2.27;;;15.70;99.90;;;;;;5245515;28;20646;-50
2022/05/22 08:04:58;;;;;;;9.43;2.23;;;16.00;99.50;;;;;;5240727;28;20193;-49
2022/05/22 08:07:29;;;;;;;2.57;1.40;;;16.10;99.50;;;;;;5246928;28;20673;-48
2022/05/22 08:09:59;;;;;;;3.60;1.70;;;16.10;98.90;;;;;;5245702;28;20183;-47
2022/05/22 08:12:36;;;;;;;2.70;1.57;;;16.10;99.00;;;;;;5245591;28;20183;-49
2022/05/22 08:15:08;;;;;;;3.17;1.50;;;16.10;99.10;;;;;;5250551;28;20277;-50
2022/05/22 08:17:38;;;;;;;2.37;1.10;;;16.10;98.50;;;;;;5250152;28;20897;-49
2022/05/22 08:20:15;;;;;;;4.67;1.80;;;16.30;97.30;;;;;;5247887;28;20504;-48
2022/05/22 08:22:46;;;;;;;6.57;1.53;;;16.60;96.60;;;;;;5251253;28;20201;-48
2022/05/22 08:25:18;;;;;;;2.40;1.97;;;16.70;95.40;;;;;;5250217;28;20467;-48
2022/05/22 08:27:49;;;;;;;3.63;1.90;;;16.90;94.80;;;;;;5245238;28;20498;-49
2022/05/22 08:30:21;;;;;;;1.70;1.13;;;16.90;93.80;;;;;;5250240;28;20808;-49
2022/05/22 08:32:52;;;;;;;5.07;1.90;;;16.50;93.80;;;;;;5249776;28;20444;-49
2022/05/22 08:35:31;;;;;;;7.70;1.67;;;16.20;95.40;;;;;;5251432;28;20416;-51
2022/05/22 08:38:02;;;;;;;6.60;1.50;;;15.90;96.50;;;;;;5245661;28;20460;-49
2022/05/22 08:40:48;;;;;;;5.33;1.30;;;16.00;97.80;;;;;;5248496;28;20472;-48
2022/05/22 08:43:34;;;;;;;4.57;2.30;;;16.10;98.00;;;;;;5248638;28;20479;-49
2022/05/22 08:46:13;;;;;;;1.93;1.10;;;16.60;96.70;;;;;;5238412;28;20540;-49
2022/05/22 08:48:53;;;;;;;2.10;1.50;;;16.70;93.90;;;;;;5230109;28;20433;-49
2022/05/22 08:51:36;;;;;;;3.13;1.13;;;16.80;92.60;;;;;;5248530;28;20436;-47
2022/05/22 08:54:27;;;;;;;8.10;1.60;;;17.10;92.50;;;;;;5247966;28;20433;-48
2022/05/22 08:59:50;;;;;;;5.23;1.43;;;18.20;86.70;;;;;;5249117;28;20441;-49
2022/05/22 09:02:24;;;;;;;5.33;1.43;;;18.40;78.40;;;;;;5245748;28;20428;-49
2022/05/22 09:05:08;;;;;;;3.80;1.43;;;18.10;75.20;;;;;;5248563;28;20445;-51
2022/05/22 09:07:52;;;;;;;2.37;1.33;;;17.90;77.80;;;;;;5244284;28;20456;-49
2022/05/22 09:10:41;;;;;;;4.83;1.60;;;18.00;77.00;;;;;;5248299;28;21186;-49
2022/05/22 09:13:31;;;;;;;5.33;2.17;;;18.30;76.20;;;;;;5242580;28;20444;-49
2022/05/22 09:16:12;;;;;;;4.73;1.77;;;18.30;75.60;;;;;;5239511;28;20440;-50
2022/05/22 09:19:07;;;;;;;2.33;1.30;;;18.60;74.10;;;;;;5238506;28;20481;-48
2022/05/22 09:21:41;;;;;;;3.40;1.33;;;18.20;74.30;;;;;;5236540;28;20477;-50
2022/05/22 09:24:58;;;;;;;2.63;1.60;;;18.00;76.50;;;;;;5247962;28;20985;-49
2022/05/22 09:27:50;;;;;;;3.17;1.73;;;18.00;75.60;;;;;;5247806;28;20531;-49
2022/05/22 09:30:25;;;;;;;3.87;1.30;;;17.90;74.80;;;;;;5247553;28;20911;-49
2022/05/22 09:33:13;;;;;;;6.53;1.53;;;17.80;75.80;;;;;;5241958;28;20517;-48
2022/05/22 09:35:52;;;;;;;8.33;2.70;;;17.60;77.40;;;;;;5246061;28;20431;-49
2022/05/22 09:38:46;;;;;;;6.90;1.40;;;17.10;79.80;;;;;;5248127;28;20453;-49
2022/05/22 09:41:40;;;;;;;1.73;1.10;;;17.10;81.90;;;;;;5260230;28;20491;-50
2022/05/22 09:44:23;;;;;;;1.50;1.10;;;17.50;80.50;;;;;;5247406;28;20468;-48
2022/05/22 09:46:59;;;;;;;6.17;1.40;;;17.80;77.00;;;;;;5248229;28;20467;-49
2022/05/22 09:49:59;;;;;;;2.93;1.57;;;18.30;74.50;;;;;;5248356;28;20432;-49
2022/05/22 09:53:06;;;;;;;1.40;1.03;;;18.70;69.20;;;;;;5216648;28;20441;-50
2022/05/22 09:55:41;;;;;;;1.67;1.10;;;19.30;69.00;;;;;;5247152;28;20782;-50
2022/05/22 09:58:34;;;;;;;6.93;1.73;;;19.80;65.80;;;;;;5248595;28;20459;-49
2022/05/22 10:01:14;;;;;;;2.20;1.33;;;19.80;62.70;;;;;;5242215;28;20429;-49
2022/05/22 10:03:59;;;;;;;4.43;1.30;;;19.60;61.50;;;;;;5247439;28;20551;-52
2022/05/22 10:06:41;;;;;;;1.80;1.03;;;18.90;62.20;;;;;;5246319;28;20470;-49
2022/05/22 10:09:22;;;;;;;2.23;2.13;;;18.30;64.30;;;;;;5243824;28;20479;-48
2022/05/22 10:12:37;;;;;;;5.90;2.60;;;18.20;65.00;;;;;;5246878;28;20557;-50
2022/05/22 10:15:27;;;;;;;1.30;1.10;;;18.40;65.60;;;;;;5241424;28;20513;-48
2022/05/22 10:18:09;;;;;;;5.20;1.23;;;18.50;65.00;;;;;;5248213;28;20456;-48
2022/05/22 10:20:58;;;;;;;3.63;1.80;;;18.70;64.60;;;;;;5236250;28;20532;-49
2022/05/22 10:24:06;;;;;;;1.50;1.40;;;18.80;62.90;;;;;;5243519;28;20773;-50
2022/05/22 10:27:05;;;;;;;2.40;1.73;;;18.90;61.30;;;;;;5233398;28;20445;-48
2022/05/22 10:29:59;;;;;;;2.00;1.53;;;18.50;59.50;;;;;;5239962;28;20421;-49
2022/05/22 10:32:49;;;;;;;2.60;1.20;;;18.70;61.10;;;;;;5236791;28;20412;-48
2022/05/22 10:36:09;;;;;;;1.50;1.20;;;18.80;60.70;;;;;;5241431;28;20453;-49
2022/05/22 10:38:55;;;;;;;5.87;3.57;;;19.00;59.90;;;;;;5234831;28;20458;-48
2022/05/22 10:44:25;;;;;;;2.77;1.23;;;18.90;59.90;;;;;;5246761;28;20637;-49
2022/05/22 10:46:59;;;;;;;1.03;0.97;;;18.30;60.50;;;;;;5246539;28;20458;-48
2022/05/22 10:49:38;;;;;;;0.90;0.90;;;18.20;61.90;;;;;;5244493;28;20432;-49
2022/05/22 10:52:13;;;;;;;5.97;1.30;;;18.00;63.70;;;;;;5246801;28;20719;-50
2022/05/22 10:54:55;;;;;;;10.57;2.87;;;18.10;63.80;;;;;;5246178;28;20432;-49
2022/05/22 10:57:30;;;;;;;28.50;14.70;;;18.30;62.90;;;;;;5230172;28;20456;-50
2022/05/22 11:00:15;;;;;;;6.50;5.73;;;18.50;61.90;;;;;;5245566;28;20427;-52
2022/05/22 11:02:45;;;;;;;2.00;1.90;;;19.00;59.30;;;;;;5245229;28;20580;-53
2022/05/22 11:05:26;;;;;;;8.80;6.13;;;19.30;57.10;;;;;;5246007;28;20424;-52
2022/05/22 11:07:57;;;;;;;19.70;7.90;;;19.20;57.20;;;;;;5241122;28;20201;-51
2022/05/22 11:10:33;;;;;;;23.50;11.47;;;19.00;58.50;;;;;;5241488;28;20440;-52
2022/05/22 11:13:19;;;;;;;32.57;17.10;;;19.00;58.70;;;;;;5238013;28;20557;-51
2022/05/22 11:15:50;;;;;;;8.20;6.53;;;19.10;59.00;;;;;;5233572;28;20553;-51
2022/05/22 11:18:26;;;;;;;5.13;3.10;;;19.40;58.60;;;;;;5243892;28;20536;-51
2022/05/22 11:21:04;;;;;;;4.50;4.13;;;19.70;56.80;;;;;;5244650;28;20243;-50
2022/05/22 11:23:47;;;;;;;2.63;1.37;;;19.70;55.80;;;;;;5243573;28;20460;-52
2022/05/22 11:26:42;;;;;;;1.97;1.87;;;19.40;54.90;;;;;;5246003;28;20880;-51
2022/05/22 11:29:46;;;;;;;1.10;1.10;;;19.10;55.60;;;;;;5244976;28;20523;-51
2022/05/22 11:32:48;;;;;;;1.60;1.50;;;18.80;56.30;;;;;;5209552;28;20436;-51
2022/05/22 11:35:38;;;;;;;7.17;1.43;;;18.90;55.90;;;;;;5244647;28;20431;-51
2022/05/22 11:38:38;;;;;;;1.27;1.00;;;19.00;55.90;;;;;;5245517;28;20461;-50
2022/05/22 11:41:37;;;;;;;4.53;1.80;;;19.00;56.10;;;;;;5245831;28;20424;-51
2022/05/22 11:44:26;;;;;;;3.20;1.57;;;18.80;55.00;;;;;;5242498;28;20464;-50
2022/05/22 11:47:24;;;;;;;3.13;1.40;;;18.60;55.90;;;;;;5241798;28;20463;-51
2022/05/22 11:49:57;;;;;;;0.73;0.73;;;18.40;56.50;;;;;;5239488;28;20428;-52
2022/05/22 11:52:56;;;;;;;1.97;0.93;;;18.60;56.80;;;;;;5234113;28;20477;-51
2022/05/22 11:55:50;;;;;;;4.67;1.50;;;18.70;55.60;;;;;;5229211;28;20436;-50
2022/05/22 11:58:33;;;;;;;5.83;2.80;;;19.10;55.00;;;;;;5236304;28;20511;-49
2022/05/22 12:01:15;;;;;;;1.97;1.50;;;19.50;53.50;;;;;;5241770;28;20436;-50
2022/05/22 12:04:04;;;;;;;2.60;2.40;;;19.50;52.40;;;;;;5246606;28;20541;-49
2022/05/22 12:06:41;;;;;;;2.73;1.73;;;19.60;51.30;;;;;;5246636;28;20468;-49
2022/05/22 12:09:36;;;;;;;16.70;11.50;;;19.80;50.90;;;;;;5233698;28;20498;-53
2022/05/22 12:12:37;;;;;;;1.20;1.13;;;19.90;50.60;;;;;;5243675;28;20549;-52
2022/05/22 12:15:34;;;;;;;2.17;1.30;;;19.80;50.60;;;;;;5243447;28;20428;-53
2022/05/22 12:18:26;;;;;;;1.90;1.33;;;19.50;51.60;;;;;;5238982;28;20451;-53
2022/05/22 12:21:00;;;;;;;13.53;2.50;;;19.40;52.20;;;;;;5245117;28;20448;-50
2022/05/22 12:23:52;;;;;;;5.10;2.80;;;19.40;51.50;;;;;;5245419;28;20554;-50
2022/05/22 12:26:25;;;;;;;2.37;1.83;;;19.40;51.40;;;;;;5229583;28;20445;-49
2022/05/22 12:29:07;;;;;;;1.63;1.43;;;19.50;51.10;;;;;;5240151;28;20467;-49
2022/05/22 12:31:44;;;;;;;2.73;2.40;;;19.70;51.60;;;;;;5238918;28;20440;-51
2022/05/22 12:34:20;;;;;;;2.33;1.90;;;19.50;50.30;;;;;;5248706;28;20444;-49
2022/05/22 12:36:53;;;;;;;3.13;1.50;;;19.40;49.10;;;;;;5243552;28;20509;-49
2022/05/22 12:39:26;;;;;;;5.50;1.60;;;19.20;48.20;;;;;;5242658;28;20561;-50
2022/05/22 12:42:13;;;;;;;1.53;1.43;;;19.30;49.00;;;;;;5236478;28;20515;-54
2022/05/22 12:44:44;;;;;;;2.13;0.80;;;19.50;48.00;;;;;;5243750;28;20472;-50
2022/05/22 12:47:16;;;;;;;10.13;2.00;;;19.70;48.10;;;;;;5244320;28;20548;-50
2022/05/22 12:49:55;;;;;;;2.77;1.93;;;19.90;47.20;;;;;;5244703;28;20806;-51
2022/05/22 12:52:30;;;;;;;6.90;3.00;;;19.70;47.30;;;;;;5246981;28;20640;-51
2022/05/22 12:55:04;;;;;;;4.13;3.70;;;19.70;48.50;;;;;;5246266;28;20500;-51
2022/05/22 12:57:35;;;;;;;3.27;1.20;;;19.80;48.80;;;;;;5246000;28;20501;-50
2022/05/22 13:00:30;;;;;;;1.50;1.10;;;19.40;47.60;;;;;;5246750;28;20523;-50
2022/05/22 13:03:07;;;;;;;5.47;1.53;;;19.20;48.40;;;;;;5240587;28;20461;-50
2022/05/22 13:05:38;;;;;;;0.87;0.80;;;19.50;49.10;;;;;;5240239;28;20464;-49
2022/05/22 13:08:22;;;;;;;2.03;1.40;;;19.70;49.40;;;;;;5246890;28;20621;-50
2022/05/22 13:10:54;;;;;;;4.37;2.67;;;19.90;47.60;;;;;;5244030;28;20594;-50
2022/05/22 13:13:35;;;;;;;1.60;1.17;;;19.90;48.30;;;;;;5239193;28;20489;-48
2022/05/22 13:16:08;;;;;;;1.90;1.80;;;19.90;49.30;;;;;;5242636;28;20440;-49
2022/05/22 13:18:49;;;;;;;4.73;2.23;;;19.70;47.90;;;;;;5247029;28;20512;-50
2022/05/22 13:21:37;;;;;;;3.47;2.07;;;19.50;47.60;;;;;;5245264;28;20459;-48
2022/05/22 13:24:17;;;;;;;1.60;1.20;;;19.60;48.80;;;;;;5243173;28;20480;-49
2022/05/22 13:27:01;;;;;;;2.40;1.23;;;19.90;48.50;;;;;;5246896;28;20444;-49
2022/05/22 13:29:46;;;;;;;6.37;3.40;;;19.60;48.00;;;;;;5242294;28;20475;-49
2022/05/22 13:32:39;;;;;;;2.60;1.73;;;19.50;48.60;;;;;;5242655;28;20436;-50
2022/05/22 13:35:24;;;;;;;3.43;3.13;;;19.40;49.20;;;;;;5237558;28;20788;-49
2022/05/22 13:37:56;;;;;;;4.70;4.20;;;19.30;49.30;;;;;;5237479;28;21037;-50
2022/05/22 13:40:48;;;;;;;9.97;3.70;;;19.50;48.70;;;;;;5246130;28;20443;-49
2022/05/22 13:43:33;;;;;;;4.90;2.40;;;19.70;48.20;;;;;;5240510;28;20472;-49
2022/05/22 13:46:40;;;;;;;1.13;1.03;;;20.00;47.90;;;;;;5240635;28;20489;-50
2022/05/22 13:49:38;;;;;;;3.13;0.90;;;20.40;47.60;;;;;;5236868;28;20436;-49
2022/05/22 13:52:34;;;;;;;3.13;2.90;;;20.80;46.50;;;;;;5242618;28;20450;-50